Dionisio Cerqueira, Brazil
Current Conditions -  °F | °C
As of 1:00 AM on Saturday 22 Nov 2014 (Local Time) from SARI Reporting Station
Broken Clouds Broken Clouds  
Wind Chill: 68°   Ceiling: 1500
Heat Index: 68°   Visibility: 5mi
Dew Point: 68°   Wind: 12mph
Humidity: 100%   Direction: 20°NNE
Pressure: 29.91"   Gusts: NA
Location:  26.26°S, 53.64°W
Report Text: SARI 220300Z 02010KT 8000 FEW005 BKN015BKN100 20/20 Q1013
Loading
Personal Weather Stations






























Interactive Weather Map New forecast layout! Learn more

10-Day Weather Forecast

Advertisements
Track Severe Weather on mobile